Edgware, United Kingdom
Current Conditions -  °F | °C
As of 5:50 PM on Saturday 20 Dec 2014 (Local Time) from EGWU Reporting Station
Broken Clouds Broken Clouds  
Wind Chill:   Ceiling: 25000
Heat Index:   Visibility: 6mi
Dew Point:   Wind: 8mph
Humidity: 76%   Direction: 280°W
Pressure: 30.39"   Gusts: NA
Location:  51.61°N, 0.27°W
Report Text: EGWU 201750Z 28007KT 9999 SCT045 BKN250 07/03 Q1029 NOSIG
Loading
Personal Weather Stations






























Interactive Weather Map New forecast layout! Learn more

10-Day Weather Forecast

Advertisements
Track Severe Weather on mobile